RYR779M LFML-LKPR
Flight info
| Callsign | RYR779M |
|---|---|
| Flight time | N/A |
| Altitude | 36000 |
| Route | ETREK DCT LUXAN DCT LTP DCT SOPLO DCT OMASI DCT KINNI DCT SOSAL/N0436F380 DCT KORED DCT INTEG/N0437F370 DCT KONIN DCT MEBEK DCT NENUM/N0432F350 Z39 GONBA/N0377F270 Z39 DOLUP DCT APRAQ |
| Aircraft | B738/M-SDE2E3FGHIRWXY/LB1 |
Departure
| Time | 2026-04-30 13:41 |
|---|---|
| Airport | Marseille Provence Airport (LFML) |
Arrival
| Time | N/A |
|---|---|
| Airport | Václav Havel Airport Prague (LKPR) |
| Time | Latitude | Longitude | Altitude | Speed | Heading |
|---|---|---|---|---|---|
| 2026-04-30 13:08 | 43.44315 | 5.21746 | 28 ft | 0 kts | 235° |
| 2026-04-30 13:32 | 43.44314 | 5.21732 | 28 ft | 3 kts | 269° |
| 2026-04-30 13:33 | 43.44282 | 5.21628 | 27 ft | 8 kts | 224° |
| 2026-04-30 13:33 | 43.44189 | 5.21508 | 27 ft | 10 kts | 223° |
| 2026-04-30 13:34 | 43.44138 | 5.21439 | 27 ft | 11 kts | 226° |
| 2026-04-30 13:34 | 43.43949 | 5.21445 | 31 ft | 12 kts | 133° |
| 2026-04-30 13:35 | 43.43927 | 5.21550 | 32 ft | 12 kts | 68° |
| 2026-04-30 13:35 | 43.43952 | 5.21742 | 35 ft | 12 kts | 134° |
| 2026-04-30 13:36 | 43.43842 | 5.21899 | 39 ft | 12 kts | 134° |
| 2026-04-30 13:36 | 43.43781 | 5.21985 | 41 ft | 13 kts | 136° |
| 2026-04-30 13:36 | 43.43607 | 5.22131 | 46 ft | 17 kts | 150° |
| 2026-04-30 13:37 | 43.43503 | 5.22217 | 49 ft | 17 kts | 148° |
| 2026-04-30 13:37 | 43.43304 | 5.22362 | 56 ft | 16 kts | 134° |
| 2026-04-30 13:38 | 43.43156 | 5.22572 | 62 ft | 16 kts | 133° |
| 2026-04-30 13:38 | 43.43078 | 5.22685 | 64 ft | 17 kts | 134° |
| 2026-04-30 13:38 | 43.42921 | 5.22877 | 60 ft | 13 kts | 171° |
| 2026-04-30 13:39 | 43.42872 | 5.22855 | 70 ft | 0 kts | 222° |
| 2026-04-30 13:39 | 43.42851 | 5.22829 | 70 ft | 6 kts | 224° |
| 2026-04-30 13:40 | 43.42821 | 5.22778 | 69 ft | 7 kts | 242° |
| 2026-04-30 13:40 | 43.42823 | 5.22710 | 68 ft | 8 kts | 299° |
| 2026-04-30 13:40 | 43.42869 | 5.22643 | 62 ft | 15 kts | 314° |
| 2026-04-30 13:40 | 43.42990 | 5.22471 | 60 ft | 63 kts | 314° |
| 2026-04-30 13:41 | 43.43702 | 5.21452 | 40 ft | 152 kts | 313° |
| 2026-04-30 13:41 | 43.44453 | 5.20356 | 658 ft | 157 kts | 313° |
| 2026-04-30 13:41 | 43.45185 | 5.19321 | 1816 ft | 144 kts | 314° |
| 2026-04-30 13:41 | 43.45910 | 5.18304 | 2391 ft | 160 kts | 314° |
| 2026-04-30 13:42 | 43.46768 | 5.17120 | 2780 ft | 180 kts | 315° |
| 2026-04-30 13:42 | 43.47626 | 5.15929 | 3633 ft | 176 kts | 312° |
| 2026-04-30 13:42 | 43.49552 | 5.13150 | 4266 ft | 227 kts | 313° |
| 2026-04-30 13:43 | 43.50306 | 5.12062 | 4437 ft | 245 kts | 313° |
| 2026-04-30 13:43 | 43.51980 | 5.09653 | 4939 ft | 273 kts | 314° |
| 2026-04-30 13:43 | 43.52880 | 5.08366 | 5464 ft | 276 kts | 314° |
| 2026-04-30 13:43 | 43.54654 | 5.05829 | 6569 ft | 280 kts | 314° |
| 2026-04-30 13:44 | 43.55641 | 5.04615 | 7111 ft | 282 kts | 329° |
| 2026-04-30 13:44 | 43.57472 | 5.03755 | 7881 ft | 283 kts | 351° |
| 2026-04-30 13:44 | 43.59434 | 5.03319 | 8624 ft | 288 kts | 352° |
| 2026-04-30 13:44 | 43.61437 | 5.02909 | 9370 ft | 292 kts | 352° |
| 2026-04-30 13:45 | 43.65482 | 5.02047 | 10716 ft | 305 kts | 351° |
| 2026-04-30 13:45 | 43.67667 | 5.01555 | 10890 ft | 329 kts | 350° |
| 2026-04-30 13:45 | 43.69994 | 5.01017 | 11230 ft | 345 kts | 350° |
| 2026-04-30 13:46 | 43.72354 | 5.00462 | 11905 ft | 349 kts | 349° |
| 2026-04-30 13:46 | 43.74757 | 4.99889 | 12725 ft | 349 kts | 349° |
| 2026-04-30 13:46 | 43.77160 | 4.99313 | 13542 ft | 350 kts | 349° |
| 2026-04-30 13:46 | 43.79549 | 4.98739 | 14268 ft | 354 kts | 349° |
| 2026-04-30 13:47 | 43.82012 | 4.98145 | 14998 ft | 358 kts | 349° |
| 2026-04-30 13:47 | 43.84479 | 4.97548 | 15724 ft | 362 kts | 349° |
| 2026-04-30 13:47 | 43.86948 | 4.96951 | 16420 ft | 365 kts | 348° |
| 2026-04-30 13:47 | 43.89483 | 4.96367 | 17103 ft | 370 kts | 352° |
| 2026-04-30 13:48 | 43.92092 | 4.96368 | 17733 ft | 377 kts | 6° |
| 2026-04-30 13:48 | 43.94676 | 4.97170 | 18383 ft | 382 kts | 15° |
| 2026-04-30 13:48 | 43.97206 | 4.98281 | 19010 ft | 386 kts | 16° |
| 2026-04-30 13:48 | 43.99766 | 4.99431 | 19600 ft | 390 kts | 16° |
| 2026-04-30 13:49 | 44.02376 | 5.00603 | 20206 ft | 394 kts | 17° |
| 2026-04-30 13:49 | 44.04990 | 5.01768 | 20850 ft | 395 kts | 16° |
| 2026-04-30 13:49 | 44.07605 | 5.02924 | 21416 ft | 399 kts | 16° |
| 2026-04-30 13:49 | 44.10268 | 5.04094 | 21942 ft | 403 kts | 16° |
| 2026-04-30 13:50 | 44.12963 | 5.05274 | 22463 ft | 406 kts | 16° |
| 2026-04-30 13:50 | 44.18381 | 5.07642 | 23495 ft | 412 kts | 16° |
| 2026-04-30 13:50 | 44.21144 | 5.08851 | 23988 ft | 415 kts | 16° |
| 2026-04-30 13:51 | 44.23885 | 5.10050 | 24455 ft | 418 kts | 16° |
| 2026-04-30 13:51 | 44.26686 | 5.11278 | 24918 ft | 422 kts | 15° |
| 2026-04-30 13:51 | 44.29463 | 5.12496 | 25356 ft | 424 kts | 15° |
| 2026-04-30 13:51 | 44.32306 | 5.13745 | 25824 ft | 427 kts | 15° |
| 2026-04-30 13:52 | 44.35157 | 5.14998 | 26237 ft | 430 kts | 15° |
| 2026-04-30 13:52 | 44.37993 | 5.16247 | 26649 ft | 432 kts | 15° |
| 2026-04-30 13:52 | 44.40896 | 5.17526 | 27049 ft | 435 kts | 15° |
| 2026-04-30 13:52 | 44.43760 | 5.18790 | 27434 ft | 437 kts | 15° |
| 2026-04-30 13:53 | 44.46687 | 5.20083 | 27815 ft | 440 kts | 15° |
| 2026-04-30 13:53 | 44.49587 | 5.21365 | 28181 ft | 442 kts | 15° |
| 2026-04-30 13:53 | 44.52563 | 5.22683 | 28546 ft | 444 kts | 15° |
| 2026-04-30 13:53 | 44.55504 | 5.23985 | 28881 ft | 447 kts | 15° |
| 2026-04-30 13:54 | 44.58456 | 5.25294 | 29206 ft | 449 kts | 15° |
| 2026-04-30 13:54 | 44.61453 | 5.26606 | 29556 ft | 450 kts | 15° |
| 2026-04-30 13:54 | 44.64458 | 5.27882 | 29948 ft | 450 kts | 14° |
| 2026-04-30 13:54 | 44.67471 | 5.29146 | 30412 ft | 448 kts | 14° |
| 2026-04-30 13:55 | 44.70434 | 5.30389 | 30875 ft | 446 kts | 14° |
| 2026-04-30 13:55 | 44.73394 | 5.31634 | 31317 ft | 445 kts | 14° |
| 2026-04-30 13:55 | 44.76358 | 5.32886 | 31695 ft | 444 kts | 14° |
| 2026-04-30 13:55 | 44.79328 | 5.34145 | 32073 ft | 443 kts | 14° |
| 2026-04-30 13:56 | 44.82250 | 5.35386 | 32469 ft | 442 kts | 14° |
| 2026-04-30 13:56 | 44.85195 | 5.36640 | 32860 ft | 440 kts | 14° |
| 2026-04-30 13:56 | 44.88132 | 5.37892 | 33222 ft | 440 kts | 14° |
| 2026-04-30 13:56 | 44.91067 | 5.39144 | 33574 ft | 439 kts | 14° |
| 2026-04-30 13:57 | 44.93964 | 5.40381 | 33924 ft | 438 kts | 14° |
| 2026-04-30 13:57 | 44.96888 | 5.41631 | 34277 ft | 437 kts | 14° |
| 2026-04-30 13:57 | 44.99775 | 5.42866 | 34599 ft | 436 kts | 14° |
| 2026-04-30 13:57 | 45.02700 | 5.44118 | 34869 ft | 436 kts | 14° |
| 2026-04-30 13:58 | 45.05575 | 5.45350 | 35138 ft | 436 kts | 14° |
| 2026-04-30 13:58 | 45.11362 | 5.47835 | 35782 ft | 433 kts | 14° |
| 2026-04-30 13:58 | 45.14259 | 5.49081 | 36076 ft | 433 kts | 14° |
| 2026-04-30 13:59 | 45.17126 | 5.50315 | 36111 ft | 437 kts | 14° |
| 2026-04-30 13:59 | 45.22958 | 5.52830 | 36123 ft | 438 kts | 15° |
| 2026-04-30 14:00 | 45.28750 | 5.55335 | 36121 ft | 430 kts | 15° |
| 2026-04-30 14:00 | 45.37298 | 5.59038 | 36139 ft | 428 kts | 15° |
| 2026-04-30 14:01 | 45.43028 | 5.61527 | 36129 ft | 429 kts | 15° |
| 2026-04-30 14:01 | 45.48725 | 5.64006 | 36135 ft | 429 kts | 15° |
| 2026-04-30 14:02 | 45.54421 | 5.66492 | 36123 ft | 429 kts | 15° |
| 2026-04-30 14:02 | 45.60124 | 5.68985 | 36131 ft | 429 kts | 15° |
| 2026-04-30 14:03 | 45.65837 | 5.71488 | 36133 ft | 428 kts | 15° |
| 2026-04-30 14:03 | 45.71461 | 5.74199 | 36115 ft | 430 kts | 24° |
| 2026-04-30 14:04 | 45.76449 | 5.78933 | 36113 ft | 432 kts | 40° |
| 2026-04-30 14:04 | 45.80885 | 5.84760 | 36110 ft | 432 kts | 41° |
| 2026-04-30 14:05 | 45.85303 | 5.90558 | 36110 ft | 432 kts | 40° |
| 2026-04-30 14:05 | 45.89756 | 5.96311 | 36131 ft | 431 kts | 40° |
| 2026-04-30 14:06 | 45.96430 | 6.04949 | 36133 ft | 430 kts | 40° |
| 2026-04-30 14:07 | 46.03118 | 6.13643 | 36130 ft | 430 kts | 40° |
| 2026-04-30 14:08 | 46.09814 | 6.22391 | 36370 ft | 439 kts | 41° |
| 2026-04-30 14:08 | 46.12022 | 6.25448 | 36623 ft | 439 kts | 43° |
| 2026-04-30 14:08 | 46.16297 | 6.31583 | 37454 ft | 428 kts | 43° |
| 2026-04-30 14:09 | 46.18414 | 6.34636 | 37787 ft | 425 kts | 43° |
| 2026-04-30 14:09 | 46.20493 | 6.37624 | 37937 ft | 427 kts | 43° |
| 2026-04-30 14:09 | 46.24744 | 6.43708 | 38147 ft | 430 kts | 43° |
| 2026-04-30 14:10 | 46.26849 | 6.46716 | 38144 ft | 432 kts | 43° |
| 2026-04-30 14:10 | 46.31127 | 6.52838 | 38141 ft | 429 kts | 43° |
| 2026-04-30 14:11 | 46.35339 | 6.58879 | 38146 ft | 426 kts | 43° |
| 2026-04-30 14:11 | 46.39528 | 6.64902 | 38144 ft | 424 kts | 43° |
| 2026-04-30 14:12 | 46.43705 | 6.70923 | 38152 ft | 422 kts | 43° |
| 2026-04-30 14:12 | 46.47839 | 6.76895 | 38148 ft | 420 kts | 43° |
| 2026-04-30 14:13 | 46.51986 | 6.82898 | 38166 ft | 419 kts | 43° |
| 2026-04-30 14:13 | 46.56091 | 6.88905 | 38164 ft | 419 kts | 46° |
| 2026-04-30 14:14 | 46.59804 | 6.95423 | 38179 ft | 421 kts | 50° |
| 2026-04-30 14:14 | 46.63433 | 7.02085 | 38168 ft | 422 kts | 50° |
| 2026-04-30 14:15 | 46.67117 | 7.08798 | 38179 ft | 423 kts | 49° |
| 2026-04-30 14:15 | 46.70792 | 7.15456 | 38179 ft | 424 kts | 49° |
| 2026-04-30 14:16 | 46.74506 | 7.22190 | 38174 ft | 425 kts | 49° |
| 2026-04-30 14:16 | 46.78202 | 7.28910 | 38168 ft | 426 kts | 49° |
| 2026-04-30 14:17 | 46.81892 | 7.35632 | 38170 ft | 425 kts | 49° |
| 2026-04-30 14:17 | 46.84946 | 7.42986 | 38171 ft | 429 kts | 65° |
| 2026-04-30 14:18 | 46.86469 | 7.51281 | 38164 ft | 431 kts | 77° |
| 2026-04-30 14:18 | 46.88047 | 7.64186 | 38155 ft | 430 kts | 77° |
| 2026-04-30 14:19 | 46.89649 | 7.77058 | 38163 ft | 428 kts | 77° |
| 2026-04-30 14:20 | 46.90735 | 7.85640 | 38162 ft | 427 kts | 77° |
| 2026-04-30 14:20 | 46.92346 | 7.98412 | 38177 ft | 426 kts | 77° |
| 2026-04-30 14:21 | 46.93410 | 8.06931 | 38179 ft | 426 kts | 76° |
| 2026-04-30 14:22 | 46.94993 | 8.19688 | 38195 ft | 425 kts | 76° |
| 2026-04-30 14:22 | 46.96565 | 8.32493 | 38208 ft | 424 kts | 76° |
| 2026-04-30 14:23 | 46.98629 | 8.49489 | 38211 ft | 425 kts | 76° |
| 2026-04-30 14:24 | 47.00167 | 8.62304 | 38220 ft | 425 kts | 77° |
| 2026-04-30 14:25 | 47.02189 | 8.79339 | 38221 ft | 426 kts | 77° |
| 2026-04-30 14:26 | 47.03699 | 8.92216 | 38225 ft | 426 kts | 77° |
| 2026-04-30 14:27 | 47.05187 | 9.05036 | 38242 ft | 424 kts | 77° |
| 2026-04-30 14:27 | 47.06169 | 9.13565 | 38241 ft | 425 kts | 77° |
| 2026-04-30 14:28 | 47.07637 | 9.26426 | 38232 ft | 426 kts | 77° |
| 2026-04-30 14:28 | 47.08603 | 9.34962 | 38218 ft | 426 kts | 77° |
| 2026-04-30 14:29 | 47.10362 | 9.50662 | 38233 ft | 424 kts | 77° |
| 2026-04-30 14:31 | 47.12710 | 9.71944 | 38248 ft | 422 kts | 77° |
| 2026-04-30 14:31 | 47.14102 | 9.84727 | 38237 ft | 422 kts | 77° |
| 2026-04-30 14:32 | 47.15463 | 9.92980 | 38245 ft | 414 kts | 64° |
| 2026-04-30 14:32 | 47.16706 | 9.96806 | 38222 ft | 411 kts | 57° |
| 2026-04-30 14:32 | 47.18276 | 10.00258 | 37979 ft | 410 kts | 51° |
| 2026-04-30 14:33 | 47.19964 | 10.03605 | 37855 ft | 404 kts | 50° |
| 2026-04-30 14:33 | 47.23331 | 10.10151 | 37603 ft | 399 kts | 50° |
| 2026-04-30 14:33 | 47.24998 | 10.13409 | 37487 ft | 398 kts | 50° |
| 2026-04-30 14:34 | 47.26656 | 10.16675 | 37376 ft | 398 kts | 51° |
| 2026-04-30 14:34 | 47.28310 | 10.19954 | 37273 ft | 400 kts | 51° |
| 2026-04-30 14:34 | 47.30522 | 10.24364 | 37241 ft | 398 kts | 51° |
| 2026-04-30 14:35 | 47.35427 | 10.34193 | 37248 ft | 397 kts | 51° |
| 2026-04-30 14:36 | 47.38700 | 10.40773 | 37256 ft | 399 kts | 51° |
| 2026-04-30 14:36 | 47.41994 | 10.47410 | 37257 ft | 400 kts | 51° |
| 2026-04-30 14:37 | 47.45247 | 10.53982 | 37267 ft | 400 kts | 51° |
| 2026-04-30 14:37 | 47.48556 | 10.60682 | 37271 ft | 401 kts | 51° |
| 2026-04-30 14:38 | 47.51837 | 10.67344 | 37267 ft | 401 kts | 51° |
| 2026-04-30 14:38 | 47.55114 | 10.74011 | 37267 ft | 401 kts | 51° |
| 2026-04-30 14:39 | 47.58386 | 10.80687 | 37268 ft | 400 kts | 51° |
| 2026-04-30 14:39 | 47.61638 | 10.87336 | 37263 ft | 399 kts | 51° |
| 2026-04-30 14:40 | 47.66505 | 10.97318 | 37280 ft | 398 kts | 51° |
| 2026-04-30 14:40 | 47.69750 | 11.03992 | 37286 ft | 396 kts | 51° |
| 2026-04-30 14:41 | 47.72970 | 11.10633 | 37288 ft | 396 kts | 51° |
| 2026-04-30 14:41 | 47.76161 | 11.17230 | 37285 ft | 395 kts | 51° |
| 2026-04-30 14:42 | 47.79365 | 11.23871 | 37289 ft | 395 kts | 52° |
| 2026-04-30 14:42 | 47.82548 | 11.30482 | 37301 ft | 395 kts | 51° |
| 2026-04-30 14:43 | 47.85693 | 11.37180 | 37302 ft | 396 kts | 56° |
| 2026-04-30 14:43 | 47.88144 | 11.44563 | 37310 ft | 398 kts | 61° |
| 2026-04-30 14:44 | 47.90486 | 11.52003 | 37313 ft | 398 kts | 61° |
| 2026-04-30 14:44 | 47.92849 | 11.59477 | 37318 ft | 398 kts | 61° |
| 2026-04-30 14:45 | 47.95216 | 11.66931 | 37318 ft | 398 kts | 61° |
| 2026-04-30 14:45 | 47.97593 | 11.74425 | 37319 ft | 398 kts | 61° |
| 2026-04-30 14:46 | 47.99949 | 11.81869 | 37322 ft | 398 kts | 61° |
| 2026-04-30 14:46 | 48.02304 | 11.89338 | 37328 ft | 397 kts | 61° |
| 2026-04-30 14:47 | 48.04656 | 11.96815 | 37329 ft | 397 kts | 61° |
| 2026-04-30 14:47 | 48.06997 | 12.04282 | 37339 ft | 397 kts | 61° |
| 2026-04-30 14:48 | 48.09341 | 12.11777 | 37339 ft | 397 kts | 61° |
| 2026-04-30 14:48 | 48.11673 | 12.19258 | 37343 ft | 396 kts | 61° |
| 2026-04-30 14:49 | 48.13982 | 12.26690 | 37342 ft | 396 kts | 61° |
| 2026-04-30 14:49 | 48.16296 | 12.34159 | 37347 ft | 396 kts | 61° |
| 2026-04-30 14:50 | 48.19764 | 12.45393 | 37350 ft | 396 kts | 62° |
| 2026-04-30 14:51 | 48.23635 | 12.56249 | 37370 ft | 390 kts | 49° |
| 2026-04-30 14:51 | 48.27437 | 12.61952 | 37374 ft | 386 kts | 38° |
| 2026-04-30 14:52 | 48.29497 | 12.64481 | 37348 ft | 387 kts | 38° |
| 2026-04-30 14:52 | 48.35749 | 12.72144 | 37348 ft | 387 kts | 38° |
| 2026-04-30 14:53 | 48.41983 | 12.79898 | 37349 ft | 388 kts | 38° |
| 2026-04-30 14:54 | 48.50271 | 12.90268 | 37348 ft | 384 kts | 38° |
| 2026-04-30 14:55 | 48.56677 | 12.97285 | 37384 ft | 378 kts | 29° |
| 2026-04-30 14:55 | 48.61221 | 13.01108 | 36955 ft | 371 kts | 29° |
| 2026-04-30 14:56 | 48.65722 | 13.04946 | 36033 ft | 367 kts | 30° |
| 2026-04-30 14:56 | 48.70087 | 13.08706 | 35564 ft | 363 kts | 30° |
| 2026-04-30 14:57 | 48.72278 | 13.10598 | 35324 ft | 369 kts | 30° |
| 2026-04-30 14:57 | 48.76742 | 13.14455 | 34736 ft | 363 kts | 31° |
| 2026-04-30 14:58 | 48.81090 | 13.18220 | 33978 ft | 355 kts | 31° |
| 2026-04-30 14:58 | 48.83233 | 13.20077 | 33597 ft | 351 kts | 31° |
| 2026-04-30 14:58 | 48.87420 | 13.23708 | 32829 ft | 345 kts | 31° |
| 2026-04-30 14:59 | 48.91743 | 13.26655 | 32274 ft | 334 kts | 25° |
| 2026-04-30 15:00 | 48.98022 | 13.30588 | 31369 ft | 320 kts | 26° |
| 2026-04-30 15:00 | 49.02099 | 13.33177 | 30667 ft | 315 kts | 26° |
| 2026-04-30 15:01 | 49.06099 | 13.35727 | 29988 ft | 309 kts | 25° |
| 2026-04-30 15:01 | 49.07443 | 13.36585 | 29744 ft | 308 kts | 25° |
| 2026-04-30 15:01 | 49.11897 | 13.39756 | 28894 ft | 301 kts | 33° |
| 2026-04-30 15:02 | 49.13581 | 13.41640 | 28495 ft | 299 kts | 40° |
| 2026-04-30 15:02 | 49.15150 | 13.43727 | 28139 ft | 297 kts | 41° |
| 2026-04-30 15:03 | 49.19720 | 13.49998 | 27072 ft | 292 kts | 41° |
| 2026-04-30 15:03 | 49.22730 | 13.54123 | 26386 ft | 288 kts | 41° |
| 2026-04-30 15:04 | 49.25679 | 13.58158 | 25719 ft | 284 kts | 41° |
| 2026-04-30 15:04 | 49.30053 | 13.64145 | 24728 ft | 280 kts | 41° |
| 2026-04-30 15:05 | 49.34485 | 13.70222 | 23740 ft | 295 kts | 41° |
| 2026-04-30 15:06 | 49.37547 | 13.74429 | 23015 ft | 294 kts | 41° |
| 2026-04-30 15:06 | 49.40584 | 13.78609 | 22324 ft | 290 kts | 41° |
| 2026-04-30 15:07 | 49.43559 | 13.82712 | 21641 ft | 286 kts | 41° |
| 2026-04-30 15:07 | 49.46493 | 13.86764 | 20975 ft | 282 kts | 41° |
| 2026-04-30 15:08 | 49.49391 | 13.90772 | 20315 ft | 279 kts | 41° |
| 2026-04-30 15:08 | 49.53674 | 13.96709 | 19332 ft | 274 kts | 41° |
| 2026-04-30 15:09 | 49.56483 | 14.00612 | 18683 ft | 272 kts | 41° |
| 2026-04-30 15:09 | 49.59284 | 14.04508 | 18041 ft | 269 kts | 41° |
| 2026-04-30 15:10 | 49.62056 | 14.08369 | 17406 ft | 268 kts | 41° |
| 2026-04-30 15:11 | 49.68372 | 14.14195 | 15875 ft | 273 kts | 20° |
| 2026-04-30 15:11 | 49.72019 | 14.16056 | 15050 ft | 278 kts | 20° |
| 2026-04-30 15:12 | 49.77697 | 14.15497 | 13533 ft | 285 kts | 346° |
| 2026-04-30 15:13 | 49.81432 | 14.13426 | 12458 ft | 283 kts | 345° |
| 2026-04-30 15:14 | 49.88665 | 14.08639 | 10613 ft | 283 kts | 339° |
| 2026-04-30 15:14 | 49.93972 | 14.04909 | 9767 ft | 278 kts | 339° |
| 2026-04-30 15:16 | 50.02131 | 13.99224 | 8520 ft | 273 kts | 338° |
| 2026-04-30 15:17 | 50.08998 | 13.94434 | 7560 ft | 266 kts | 338° |
| 2026-04-30 15:18 | 50.17270 | 13.89081 | 6327 ft | 252 kts | 1° |
| 2026-04-30 15:19 | 50.21604 | 13.92501 | 5621 ft | 229 kts | 37° |